createdAt,value
2022-12-15T00:02:15.482Z,92722.84
2022-12-15T00:05:00.830Z,92716.09
2022-12-15T00:07:46.203Z,92713.81
2022-12-15T00:10:31.317Z,92723.63
2022-12-15T00:13:16.601Z,92712.66
2022-12-15T00:16:01.599Z,92722.19
2022-12-15T00:18:46.829Z,92706.22
2022-12-15T00:21:32.040Z,92715.72
2022-12-15T00:24:16.939Z,92696.16
2022-12-15T00:27:02.240Z,92701.50
2022-12-15T00:29:47.219Z,92713.25
2022-12-15T00:32:32.453Z,92712.84
2022-12-15T00:35:17.205Z,92709.47
2022-12-15T00:38:02.194Z,92717.06
2022-12-15T00:40:28.749Z,92710.25
2022-12-15T00:42:55.430Z,92714.22
2022-12-15T00:45:41.946Z,92709.16
2022-12-15T00:48:08.522Z,92709.47
2022-12-15T00:50:53.356Z,92723.09
2022-12-15T00:53:40.026Z,92719.44
2022-12-15T00:56:26.137Z,92726.56
2022-12-15T00:59:11.932Z,92730.44
2022-12-15T01:01:57.475Z,92735.03
2022-12-15T01:04:42.643Z,92736.47
2022-12-15T01:07:27.794Z,92731.78
2022-12-15T01:10:12.782Z,92741.59
2022-12-15T01:12:58.160Z,92739.69
2022-12-15T01:15:43.483Z,92745.41
2022-12-15T01:18:28.662Z,92731.78
2022-12-15T01:21:08.323Z,92739.38
2022-12-15T01:23:35.462Z,92736.53
2022-12-15T01:26:02.190Z,92741.00
2022-12-15T01:28:28.839Z,92748.28
2022-12-15T01:30:55.590Z,92750.81
2022-12-15T01:33:22.557Z,92755.84
2022-12-15T01:36:07.306Z,92768.59
2022-12-15T01:38:33.899Z,92772.66
2022-12-15T01:41:10.891Z,92780.25
2022-12-15T01:43:39.542Z,92776.59
2022-12-15T01:46:13.129Z,92781.34
2022-12-15T01:48:57.889Z,92788.97
2022-12-15T01:51:32.786Z,92781.66
2022-12-15T01:54:04.091Z,92774.56
2022-12-15T01:56:37.762Z,92771.13
2022-12-15T01:59:07.290Z,92774.91
2022-12-15T02:01:34.101Z,92786.47
2022-12-15T02:04:00.983Z,92789.78
2022-12-15T02:06:28.314Z,92795.47
2022-12-15T02:08:57.706Z,92799.56
2022-12-15T02:11:31.572Z,92802.09
2022-12-15T02:14:04.065Z,92806.22
2022-12-15T02:16:53.618Z,92808.25
2022-12-15T02:19:47.991Z,92807.13
2022-12-15T02:22:53.672Z,92810.00
2022-12-15T02:25:32.406Z,92813.47
2022-12-15T02:28:07.053Z,92809.63
2022-12-15T02:31:11.944Z,92806.63
2022-12-15T02:33:46.442Z,92811.84
2022-12-15T02:36:32.586Z,92812.13
2022-12-15T02:38:59.226Z,92807.09
2022-12-15T02:41:46.188Z,92805.69
2022-12-15T02:44:29.399Z,92813.13
2022-12-15T02:47:27.885Z,92814.59
2022-12-15T02:50:06.359Z,92820.41
2022-12-15T02:52:55.307Z,92821.34
2022-12-15T02:56:00.661Z,92823.38
2022-12-15T02:58:51.389Z,92823.34
2022-12-15T03:01:25.768Z,92828.59
2022-12-15T03:03:52.950Z,92818.94
2022-12-15T03:06:20.016Z,92833.59
2022-12-15T03:08:46.831Z,92842.16
2022-12-15T03:11:13.436Z,92840.56
2022-12-15T03:13:40.093Z,92832.31
2022-12-15T03:16:06.914Z,92837.53
2022-12-15T03:18:33.597Z,92828.03
2022-12-15T03:21:00.318Z,92832.25
2022-12-15T03:23:27.041Z,92827.00
2022-12-15T03:25:53.776Z,92828.69
2022-12-15T03:28:20.526Z,92826.63
2022-12-15T03:30:50.221Z,92827.88
2022-12-15T03:33:18.053Z,92817.19
2022-12-15T03:35:44.804Z,92821.34
2022-12-15T03:38:11.453Z,92835.94
2022-12-15T03:40:38.133Z,92840.72
2022-12-15T03:43:04.811Z,92836.94
2022-12-15T03:45:31.563Z,92837.88
2022-12-15T03:47:58.399Z,92826.94
2022-12-15T03:50:27.505Z,92839.13
2022-12-15T03:52:56.963Z,92850.25
2022-12-15T03:55:24.311Z,92857.47
2022-12-15T03:57:51.775Z,92860.38
2022-12-15T04:00:20.050Z,92859.69
2022-12-15T04:02:50.212Z,92854.13
2022-12-15T04:05:31.891Z,92843.94
2022-12-15T04:07:59.867Z,92842.63
2022-12-15T04:10:33.655Z,92849.25
2022-12-15T04:13:05.726Z,92856.22
2022-12-15T04:15:32.951Z,92869.97
2022-12-15T04:18:02.018Z,92864.56
2022-12-15T04:20:29.438Z,92876.06
2022-12-15T04:22:56.268Z,92882.75
2022-12-15T04:25:42.995Z,92895.91
2022-12-15T04:28:29.984Z,92902.75
2022-12-15T04:31:22.729Z,92898.81
2022-12-15T04:34:10.541Z,92890.75
2022-12-15T04:36:57.162Z,92886.94
2022-12-15T04:39:42.647Z,92890.50
2022-12-15T04:42:28.247Z,92894.63
2022-12-15T04:45:20.526Z,92889.56
2022-12-15T04:48:06.558Z,92891.47
2022-12-15T04:50:52.016Z,92893.06
2022-12-15T04:53:38.044Z,92892.09
2022-12-15T04:56:23.480Z,92883.72
2022-12-15T04:59:09.049Z,92897.97
2022-12-15T05:01:54.604Z,92885.47
2022-12-15T05:04:42.676Z,92884.47
2022-12-15T05:07:28.487Z,92902.41
2022-12-15T05:10:15.361Z,92922.41
2022-12-15T05:13:01.725Z,92930.06
2022-12-15T05:15:47.474Z,92940.53
2022-12-15T05:18:32.932Z,92946.66
2022-12-15T05:21:18.248Z,92953.47
2022-12-15T05:24:03.094Z,92970.44
2022-12-15T05:26:52.715Z,92979.91
2022-12-15T05:29:38.324Z,92984.34
2022-12-15T05:32:05.296Z,92980.22
2022-12-15T05:34:33.663Z,92985.94
2022-12-15T05:37:02.124Z,92983.22
2022-12-15T05:39:28.955Z,92984.97
2022-12-15T05:41:56.689Z,92987.84
2022-12-15T05:44:24.461Z,92992.72
2022-12-15T05:46:51.095Z,93004.50
2022-12-15T05:49:18.595Z,93013.72
2022-12-15T05:51:47.350Z,93000.38
2022-12-15T05:54:16.713Z,92999.94
2022-12-15T05:56:43.948Z,93007.88
2022-12-15T05:59:10.749Z,93004.66
2022-12-15T06:01:37.389Z,93002.09
2022-12-15T06:04:04.373Z,92993.84
2022-12-15T06:06:31.367Z,92994.47
2022-12-15T06:08:58.254Z,92995.88
2022-12-15T06:11:25.335Z,92994.34
2022-12-15T06:13:52.911Z,93006.56
2022-12-15T06:16:21.206Z,93012.25
2022-12-15T06:18:50.887Z,93011.03
2022-12-15T06:21:19.940Z,93008.78
2022-12-15T06:23:47.324Z,92998.63
2022-12-15T06:26:29.133Z,93008.47
2022-12-15T06:28:58.100Z,93015.44
2022-12-15T06:31:26.568Z,93019.41
2022-12-15T06:34:01.057Z,93016.53
2022-12-15T06:36:28.737Z,93017.78
2022-12-15T06:39:01.787Z,93031.41
2022-12-15T06:41:30.551Z,93021.09
2022-12-15T06:43:58.087Z,93032.78
2022-12-15T06:46:26.206Z,93030.31
2022-12-15T06:48:53.329Z,93029.22
2022-12-15T06:51:20.735Z,93029.34
2022-12-15T06:53:52.665Z,93038.22
2022-12-15T06:56:25.683Z,93048.97
2022-12-15T06:58:55.564Z,93049.75
2022-12-15T07:01:24.497Z,93055.63
2022-12-15T07:03:52.916Z,93064.34
2022-12-15T07:06:20.419Z,93053.72
2022-12-15T07:08:54.449Z,93067.06
2022-12-15T07:11:22.168Z,93076.72
2022-12-15T07:13:53.065Z,93076.41
2022-12-15T07:16:21.620Z,93082.94
2022-12-15T07:18:48.411Z,93084.78
2022-12-15T07:21:15.406Z,93087.47
2022-12-15T07:23:58.338Z,93081.53
2022-12-15T07:26:26.018Z,93079.91
2022-12-15T07:28:53.934Z,93080.09
2022-12-15T07:31:21.366Z,93081.94
2022-12-15T07:33:48.629Z,93099.25
2022-12-15T07:36:15.696Z,93106.28
2022-12-15T07:38:42.666Z,93112.94
2022-12-15T07:41:10.135Z,93109.78
2022-12-15T07:43:37.669Z,93118.28
2022-12-15T07:46:05.827Z,93099.00
2022-12-15T07:48:33.324Z,93091.03
2022-12-15T07:51:11.048Z,93114.53
2022-12-15T07:53:42.128Z,93128.38
2022-12-15T07:56:09.977Z,93132.47
2022-12-15T07:58:37.488Z,93131.75
2022-12-15T08:01:09.087Z,93145.00
2022-12-15T08:03:37.155Z,93146.56
2022-12-15T08:06:10.256Z,93147.31
2022-12-15T08:08:37.355Z,93142.31
2022-12-15T08:11:14.575Z,93155.88
2022-12-15T08:16:29.344Z,93155.63
2022-12-15T08:18:57.381Z,93160.59
2022-12-15T08:21:24.209Z,93170.22
2022-12-15T08:23:51.037Z,93169.69
2022-12-15T08:26:18.916Z,93161.50
2022-12-15T08:28:46.093Z,93157.00
2022-12-15T08:31:17.878Z,93158.56
2022-12-15T08:33:45.716Z,93154.22
2022-12-15T08:36:14.317Z,93154.97
2022-12-15T08:38:41.878Z,93154.81
2022-12-15T08:41:10.968Z,93150.09
2022-12-15T08:43:42.565Z,93145.16
2022-12-15T08:46:14.446Z,93131.56
2022-12-15T08:48:41.211Z,93133.88
2022-12-15T08:51:08.259Z,93131.53
2022-12-15T08:53:35.036Z,93127.16
2022-12-15T08:56:06.353Z,93133.69
2022-12-15T08:58:33.615Z,93133.13
2022-12-15T09:01:06.418Z,93144.19
2022-12-15T09:03:34.916Z,93154.03
2022-12-15T09:06:06.906Z,93147.72
2022-12-15T09:08:34.228Z,93157.56
2022-12-15T09:11:01.936Z,93157.59
2022-12-15T09:13:29.295Z,93147.91
2022-12-15T09:16:10.472Z,93160.72
2022-12-15T09:18:37.973Z,93169.38
2022-12-15T09:21:06.404Z,93173.19
2022-12-15T09:23:34.402Z,93163.53
2022-12-15T09:26:03.029Z,93168.25
2022-12-15T09:28:30.219Z,93164.88
2022-12-15T09:31:08.782Z,93158.56
2022-12-15T09:33:36.367Z,93152.44
2022-12-15T09:36:04.100Z,93157.97
2022-12-15T09:38:31.319Z,93153.25
2022-12-15T09:40:58.043Z,93153.44
2022-12-15T09:43:35.418Z,93144.06
2022-12-15T09:46:08.453Z,93141.78
2022-12-15T09:48:40.088Z,93142.78
2022-12-15T09:51:09.279Z,93134.28
2022-12-15T09:56:33.339Z,93136.47
2022-12-15T09:59:13.838Z,93137.22
2022-12-15T10:02:12.560Z,93128.75
2022-12-15T10:05:06.338Z,93125.72
2022-12-15T10:07:37.594Z,93118.44
2022-12-15T10:10:21.293Z,93135.84
2022-12-15T10:15:50.946Z,93122.38
2022-12-15T10:18:23.117Z,93118.22
2022-12-15T10:20:53.309Z,93113.53
2022-12-15T10:23:20.232Z,93114.97
2022-12-15T10:25:51.310Z,93106.66
2022-12-15T10:28:33.531Z,93105.09
2022-12-15T10:31:02.530Z,93097.94
2022-12-15T10:33:47.111Z,93096.31
2022-12-15T10:36:16.555Z,93093.16
2022-12-15T10:38:50.252Z,93083.72
2022-12-15T10:41:26.728Z,93084.69
2022-12-15T10:43:54.681Z,93071.75
2022-12-15T10:46:29.599Z,93067.66
2022-12-15T10:49:01.854Z,93066.44
2022-12-15T10:51:33.542Z,93065.41
2022-12-15T10:54:15.527Z,93066.69
2022-12-15T10:56:54.576Z,93068.56
2022-12-15T10:59:38.575Z,93067.53
2022-12-15T11:02:29.686Z,93054.81
2022-12-15T11:05:15.605Z,93060.94
2022-12-15T11:07:46.618Z,93074.22
2022-12-15T11:10:22.387Z,93074.88
2022-12-15T11:13:14.089Z,93069.91
2022-12-15T11:15:43.877Z,93068.75
2022-12-15T11:18:42.626Z,93057.72
2022-12-15T11:21:17.270Z,93052.63
2022-12-15T11:24:09.027Z,93040.16
2022-12-15T11:26:55.728Z,93029.75
2022-12-15T11:29:34.444Z,93028.19
2022-12-15T11:32:06.703Z,93030.50
2022-12-15T11:34:39.420Z,93031.94
2022-12-15T11:37:24.259Z,93021.88
2022-12-15T11:40:15.624Z,93022.47
2022-12-15T11:43:04.888Z,93005.88
2022-12-15T11:46:13.407Z,93001.19
2022-12-15T11:48:53.947Z,92991.69
2022-12-15T11:51:26.239Z,92983.19
2022-12-15T11:54:40.838Z,92992.72
2022-12-15T11:57:35.532Z,93001.31
2022-12-15T12:00:06.219Z,92993.38
2022-12-15T12:02:56.333Z,92992.94
2022-12-15T12:05:41.783Z,92996.28
2022-12-15T12:08:45.441Z,92994.69
2022-12-15T12:11:15.712Z,92988.06
2022-12-15T12:13:53.289Z,92984.97
2022-12-15T12:17:09.084Z,92972.22
2022-12-15T12:19:42.525Z,92969.53
2022-12-15T12:22:22.028Z,92972.91
2022-12-15T12:25:12.281Z,92987.38
2022-12-15T12:27:41.748Z,92991.72
2022-12-15T12:30:17.272Z,92987.78
2022-12-15T12:32:54.751Z,92982.63
2022-12-15T12:35:40.203Z,92983.44
2022-12-15T12:38:10.325Z,92970.38
2022-12-15T12:40:52.908Z,92978.06
2022-12-15T12:43:33.606Z,92980.44
2022-12-15T12:46:06.909Z,92972.69
2022-12-15T12:48:37.993Z,92964.84
2022-12-15T12:51:32.072Z,92965.88
2022-12-15T12:53:59.976Z,92968.28
2022-12-15T12:56:34.116Z,92963.13
2022-12-15T12:59:00.972Z,92953.66
2022-12-15T13:01:32.252Z,92958.19
2022-12-15T13:04:12.087Z,92959.19
2022-12-15T13:06:38.609Z,92949.72
2022-12-15T13:09:17.468Z,92952.50
2022-12-15T13:11:52.900Z,92943.78
2022-12-15T13:14:30.838Z,92943.78
2022-12-15T13:17:28.956Z,92950.13
2022-12-15T13:19:59.075Z,92950.75
2022-12-15T13:22:43.687Z,92947.41
2022-12-15T13:25:51.766Z,92945.63
2022-12-15T13:28:40.190Z,92940.28
2022-12-15T13:31:19.347Z,92947.56
2022-12-15T13:33:55.747Z,92949.94
2022-12-15T13:36:37.971Z,92945.38
2022-12-15T13:39:27.558Z,92941.03
2022-12-15T13:44:51.834Z,92950.72
2022-12-15T13:47:29.294Z,92952.50
2022-12-15T13:50:06.097Z,92967.69
2022-12-15T13:53:17.346Z,92967.09
2022-12-15T13:55:37.258Z,92970.66
2022-12-15T13:58:12.386Z,92960.00
2022-12-15T14:00:39.667Z,92944.63
2022-12-15T14:03:10.595Z,92926.72
2022-12-15T14:05:39.222Z,92909.97
2022-12-15T14:08:16.160Z,92878.22
2022-12-15T14:10:49.140Z,92863.84
2022-12-15T14:13:26.217Z,92871.28
2022-12-15T14:15:56.709Z,92870.19
2022-12-15T14:18:33.187Z,92874.31
2022-12-15T14:21:00.978Z,92885.56
2022-12-15T14:23:40.548Z,92909.16
2022-12-15T14:26:11.398Z,92939.50
2022-12-15T14:28:40.921Z,92956.38
2022-12-15T14:31:13.305Z,92952.25
2022-12-15T14:33:44.684Z,92947.28
2022-12-15T14:36:18.246Z,92931.97
2022-12-15T14:38:54.698Z,92920.56
2022-12-15T14:41:45.222Z,92910.53
2022-12-15T14:44:38.266Z,92898.28
2022-12-15T14:47:18.124Z,92886.50
2022-12-15T14:49:45.579Z,92882.78
2022-12-15T14:52:42.308Z,92876.50
2022-12-15T14:55:21.476Z,92883.59
2022-12-15T14:57:48.447Z,92889.47
2022-12-15T15:00:35.988Z,92896.75
2022-12-15T15:03:06.438Z,93127.31
2022-12-15T15:03:36.966Z,92902.06
2022-12-15T15:06:05.040Z,92903.38
2022-12-15T15:08:34.018Z,92888.44
2022-12-15T15:11:05.286Z,92881.94
2022-12-15T15:13:40.363Z,92868.94
2022-12-15T15:16:08.698Z,92880.34
2022-12-15T15:18:35.590Z,92868.13
2022-12-15T15:21:07.098Z,92865.38
2022-12-15T15:23:34.258Z,92868.19
2022-12-15T15:26:10.764Z,92867.56
2022-12-15T15:28:39.946Z,92856.56
2022-12-15T15:31:25.215Z,92864.03
2022-12-15T15:33:52.893Z,92860.50
2022-12-15T15:36:19.816Z,92872.91
2022-12-15T15:38:46.937Z,92868.56
2022-12-15T15:41:20.527Z,92859.88
2022-12-15T15:43:47.658Z,92872.44
2022-12-15T15:46:23.250Z,92860.56
2022-12-15T15:48:54.428Z,92851.53
2022-12-15T15:51:21.539Z,92846.50
2022-12-15T15:53:48.370Z,92850.16
2022-12-15T15:56:16.789Z,92840.34
2022-12-15T15:58:43.972Z,92833.09
2022-12-15T16:01:13.371Z,92832.34
2022-12-15T16:03:41.266Z,92821.66
2022-12-15T16:06:17.236Z,92820.66
2022-12-15T16:08:44.390Z,92823.41
2022-12-15T16:11:14.218Z,92820.03
2022-12-15T16:13:40.898Z,92814.91
2022-12-15T16:16:17.051Z,92809.81
2022-12-15T16:18:43.815Z,92807.63
2022-12-15T16:21:14.179Z,92816.44
2022-12-15T16:23:42.039Z,92805.41
2022-12-15T16:26:15.376Z,92807.44
2022-12-15T16:28:42.397Z,92797.03
2022-12-15T16:31:15.463Z,92811.34
2022-12-15T16:33:42.460Z,92810.56
2022-12-15T16:36:13.692Z,92793.09
2022-12-15T16:38:41.239Z,92787.78
2022-12-15T16:41:12.860Z,92800.34
2022-12-15T16:43:44.509Z,92798.34
2022-12-15T16:46:15.625Z,92791.50
2022-12-15T16:48:42.886Z,92788.94
2022-12-15T16:51:16.223Z,92792.41
2022-12-15T16:53:43.485Z,92761.88
2022-12-15T16:56:14.364Z,92789.81
2022-12-15T16:58:41.388Z,92788.50
2022-12-15T17:01:10.498Z,92794.03
2022-12-15T17:03:37.382Z,92792.81
2022-12-15T17:06:06.776Z,92795.38
2022-12-15T17:08:49.057Z,92773.38
2022-12-15T17:11:19.615Z,92777.09
2022-12-15T17:13:48.141Z,92778.19
2022-12-15T17:16:15.107Z,92774.88
2022-12-15T17:18:42.944Z,92774.91
2022-12-15T17:21:19.265Z,92784.38
2022-12-15T17:23:48.808Z,92781.06
2022-12-15T17:26:29.305Z,92790.47
2022-12-15T17:28:59.894Z,92789.28
2022-12-15T17:31:32.927Z,92792.22
2022-12-15T17:34:02.400Z,92795.75
2022-12-15T17:36:29.352Z,92786.94
2022-12-15T17:38:59.769Z,92771.22
2022-12-15T17:41:59.216Z,92770.09
2022-12-15T17:44:33.113Z,92768.50
2022-12-15T17:47:01.122Z,92750.78
2022-12-15T17:49:34.727Z,92755.53
2022-12-15T17:52:03.719Z,92763.75
2022-12-15T17:54:30.311Z,92772.59
2022-12-15T17:56:57.109Z,92769.66
2022-12-15T17:59:23.791Z,92773.19
2022-12-15T18:01:50.657Z,92775.59
2022-12-15T18:04:17.444Z,92782.59
2022-12-15T18:06:44.476Z,92787.91
2022-12-15T18:09:16.382Z,92788.88
2022-12-15T18:11:45.286Z,92790.88
2022-12-15T18:14:17.450Z,92781.25
2022-12-15T18:16:44.742Z,92776.34
2022-12-15T18:19:11.747Z,92779.72
2022-12-15T18:21:38.416Z,92779.91
2022-12-15T18:24:13.142Z,92764.16
2022-12-15T18:26:39.917Z,92765.75
2022-12-15T18:29:14.341Z,92765.38
2022-12-15T18:31:41.973Z,92756.69
2022-12-15T18:34:13.425Z,92771.66
2022-12-15T18:36:40.337Z,92776.78
2022-12-15T18:39:23.336Z,92777.91
2022-12-15T18:41:50.844Z,92784.75
2022-12-15T18:44:28.697Z,92787.72
2022-12-15T18:46:55.596Z,92795.59
2022-12-15T18:49:23.461Z,92797.16
2022-12-15T18:51:50.504Z,92799.09
2022-12-15T18:54:19.988Z,92795.97
2022-12-15T18:56:46.706Z,92791.50
2022-12-15T18:59:15.791Z,92794.47
2022-12-15T19:01:44.121Z,92793.81
2022-12-15T19:04:12.275Z,92791.25
2022-12-15T19:06:40.525Z,92768.06
2022-12-15T19:09:21.766Z,92759.59
2022-12-15T19:12:08.220Z,92744.06
2022-12-15T19:14:43.118Z,92737.03
2022-12-15T19:17:37.168Z,92735.03
2022-12-15T19:20:25.932Z,92742.09
2022-12-15T19:22:52.916Z,92732.63
2022-12-15T19:25:25.557Z,92740.31
2022-12-15T19:27:59.413Z,92745.19
2022-12-15T19:30:28.944Z,92750.91
2022-12-15T19:32:55.823Z,92740.25
2022-12-15T19:35:22.520Z,92732.34
2022-12-15T19:37:50.022Z,92732.16
2022-12-15T19:40:22.250Z,92725.16
2022-12-15T19:42:49.321Z,92719.09
2022-12-15T19:45:27.751Z,92707.34
2022-12-15T19:47:55.183Z,92691.47
2022-12-15T19:50:24.500Z,92684.59
2022-12-15T19:52:54.827Z,92688.69
2022-12-15T19:55:25.991Z,92695.13
2022-12-15T19:57:52.751Z,92687.50
2022-12-15T20:00:22.030Z,92686.72
2022-12-15T20:02:51.451Z,92677.47
2022-12-15T20:05:19.615Z,92676.72
2022-12-15T20:07:48.094Z,92671.03
2022-12-15T20:10:25.964Z,92674.56
2022-12-15T20:12:53.196Z,92656.13
2022-12-15T20:15:22.761Z,92650.41
2022-12-15T20:17:50.763Z,92647.44
2022-12-15T20:20:19.445Z,92647.84
2022-12-15T20:22:48.128Z,92639.97
2022-12-15T20:25:16.938Z,92649.00
2022-12-15T20:27:43.887Z,92633.25
2022-12-15T20:30:25.329Z,92647.81
2022-12-15T20:32:52.575Z,92654.84
2022-12-15T20:35:21.360Z,92636.03
2022-12-15T20:37:48.610Z,92634.66
2022-12-15T20:40:18.409Z,92635.84
2022-12-15T20:42:45.259Z,92621.88
2022-12-15T20:45:21.303Z,92609.72
2022-12-15T20:47:49.280Z,92605.78
2022-12-15T20:50:28.970Z,92601.09
2022-12-15T20:52:55.591Z,92606.97
2022-12-15T20:55:22.389Z,92598.31
2022-12-15T20:57:49.518Z,92605.56
2022-12-15T21:00:18.276Z,92615.22
2022-12-15T21:02:46.100Z,92612.28
2022-12-15T21:05:21.610Z,92612.47
2022-12-15T21:07:48.535Z,92601.88
2022-12-15T21:10:17.065Z,92591.06
2022-12-15T21:12:45.963Z,92583.22
2022-12-15T21:15:23.318Z,92582.81
2022-12-15T21:18:11.015Z,92583.81
2022-12-15T21:20:41.151Z,92564.16
2022-12-15T21:23:19.734Z,92565.69
2022-12-15T21:25:47.331Z,92572.34
2022-12-15T21:28:14.524Z,92570.44
2022-12-15T21:30:42.216Z,92570.63
2022-12-15T21:33:08.981Z,92578.50
2022-12-15T21:35:36.252Z,92591.09
2022-12-15T21:38:03.701Z,92606.97
2022-12-15T21:40:30.323Z,92598.09
2022-12-15T21:42:57.196Z,92604.56
2022-12-15T21:45:25.441Z,92604.41
2022-12-15T21:48:12.664Z,92617.16
2022-12-15T21:50:39.664Z,92607.72
2022-12-15T21:53:06.642Z,92612.44
2022-12-15T21:55:33.289Z,92604.03
2022-12-15T21:57:59.932Z,92597.34
2022-12-15T22:00:26.669Z,92599.53
2022-12-15T22:02:53.791Z,92597.16
2022-12-15T22:05:32.525Z,92602.28
2022-12-15T22:08:05.449Z,92597.72
2022-12-15T22:10:32.034Z,92583.00
2022-12-15T22:12:59.896Z,92579.28
2022-12-15T22:15:26.712Z,92576.31
2022-12-15T22:17:53.313Z,92584.19
2022-12-15T22:20:22.383Z,92586.16
2022-12-15T22:22:49.296Z,92584.16
2022-12-15T22:25:23.016Z,92581.44
2022-12-15T22:27:50.137Z,92577.09
2022-12-15T22:30:24.440Z,92577.28
2022-12-15T22:32:51.334Z,92569.81
2022-12-15T22:35:20.422Z,92550.78
2022-12-15T22:37:49.580Z,92547.66
2022-12-15T22:40:17.546Z,92539.97
2022-12-15T22:42:46.914Z,92538.00
2022-12-15T22:45:16.241Z,92537.25
2022-12-15T22:47:43.576Z,92533.69
2022-12-15T22:50:19.780Z,92530.75
2022-12-15T22:52:46.965Z,92509.16
2022-12-15T22:55:15.587Z,92501.88
2022-12-15T22:57:47.562Z,92493.47
2022-12-15T23:00:14.725Z,92493.47
2022-12-15T23:02:43.668Z,92479.53
2022-12-15T23:05:12.804Z,92479.72
2022-12-15T23:07:39.364Z,92466.94
2022-12-15T23:10:25.110Z,92445.75
2022-12-15T23:12:54.485Z,92452.81
2022-12-15T23:15:41.516Z,92438.88
2022-12-15T23:18:08.652Z,92437.69
2022-12-15T23:20:35.328Z,92428.47
2022-12-15T23:23:02.000Z,92429.66
2022-12-15T23:25:28.740Z,92421.81
2022-12-15T23:27:55.679Z,92405.91
2022-12-15T23:30:22.350Z,92406.31
2022-12-15T23:32:49.001Z,92402.38
2022-12-15T23:35:16.016Z,92389.03
2022-12-15T23:37:42.535Z,92374.72
2022-12-15T23:40:09.672Z,92361.34
2022-12-15T23:42:36.311Z,92354.13
2022-12-15T23:45:02.998Z,92342.53
2022-12-15T23:47:29.812Z,92321.94
2022-12-15T23:49:56.375Z,92303.50
2022-12-15T23:52:23.072Z,92313.28
2022-12-15T23:54:49.655Z,92325.00
2022-12-15T23:57:17.380Z,92313.66
2022-12-15T23:59:43.946Z,92301.50
